sensor_id;sensor_type;location;lat;lon;timestamp;P1;durP1;ratioP1;P2;durP2;ratioP2
28960;SDS011;16068;42.896;20.868;2022-10-17T00:01:15;0.20;;;0.20;;
28960;SDS011;16068;42.896;20.868;2022-10-17T00:04:01;0.20;;;0.20;;
28960;SDS011;16068;42.896;20.868;2022-10-17T00:06:46;0.13;;;0.13;;
28960;SDS011;16068;42.896;20.868;2022-10-17T00:09:32;0.10;;;0.10;;
28960;SDS011;16068;42.896;20.868;2022-10-17T00:12:18;0.20;;;0.20;;
28960;SDS011;16068;42.896;20.868;2022-10-17T00:15:04;0.10;;;0.10;;
28960;SDS011;16068;42.896;20.868;2022-10-17T00:17:51;0.20;;;0.20;;
28960;SDS011;16068;42.896;20.868;2022-10-17T00:20:37;0.10;;;0.10;;
28960;SDS011;16068;42.896;20.868;2022-10-17T00:23:23;0.17;;;0.17;;
28960;SDS011;16068;42.896;20.868;2022-10-17T00:26:11;0.10;;;0.10;;
28960;SDS011;16068;42.896;20.868;2022-10-17T00:28:57;0.10;;;0.10;;
28960;SDS011;16068;42.896;20.868;2022-10-17T00:31:43;0.10;;;0.10;;
28960;SDS011;16068;42.896;20.868;2022-10-17T00:34:29;0.20;;;0.20;;
28960;SDS011;16068;42.896;20.868;2022-10-17T00:37:15;0.10;;;0.10;;
28960;SDS011;16068;42.896;20.868;2022-10-17T00:40:01;0.20;;;0.15;;
28960;SDS011;16068;42.896;20.868;2022-10-17T00:42:48;0.10;;;0.10;;
28960;SDS011;16068;42.896;20.868;2022-10-17T00:45:37;0.20;;;0.20;;
28960;SDS011;16068;42.896;20.868;2022-10-17T00:48:23;0.20;;;0.20;;
28960;SDS011;16068;42.896;20.868;2022-10-17T00:51:10;0.20;;;0.20;;
28960;SDS011;16068;42.896;20.868;2022-10-17T00:53:57;0.20;;;0.20;;
28960;SDS011;16068;42.896;20.868;2022-10-17T00:56:44;0.15;;;0.15;;
28960;SDS011;16068;42.896;20.868;2022-10-17T00:59:32;0.20;;;0.20;;
28960;SDS011;16068;42.896;20.868;2022-10-17T01:02:19;0.10;;;0.10;;
28960;SDS011;16068;42.896;20.868;2022-10-17T01:05:07;0.10;;;0.10;;
28960;SDS011;16068;42.896;20.868;2022-10-17T01:07:54;0.10;;;0.10;;
28960;SDS011;16068;42.896;20.868;2022-10-17T01:11:19;0.20;;;0.20;;
28960;SDS011;16068;42.896;20.868;2022-10-17T01:13:58;0.35;;;0.20;;
28960;SDS011;16068;42.896;20.868;2022-10-17T01:16:51;0.20;;;0.20;;
28960;SDS011;16068;42.896;20.868;2022-10-17T01:32:27;0.20;;;0.20;;
28960;SDS011;16068;42.896;20.868;2022-10-17T01:35:20;0.20;;;0.20;;
28960;SDS011;16068;42.896;20.868;2022-10-17T01:38:21;0.10;;;0.10;;
28960;SDS011;16068;42.896;20.868;2022-10-17T01:41:18;0.10;;;0.10;;
28960;SDS011;16068;42.896;20.868;2022-10-17T01:47:31;0.10;;;0.10;;
28960;SDS011;16068;42.896;20.868;2022-10-17T01:50:22;0.17;;;0.17;;
28960;SDS011;16068;42.896;20.868;2022-10-17T01:53:12;0.30;;;0.10;;
28960;SDS011;16068;42.896;20.868;2022-10-17T01:56:01;0.20;;;0.20;;
28960;SDS011;16068;42.896;20.868;2022-10-17T01:58:52;0.10;;;0.10;;
28960;SDS011;16068;42.896;20.868;2022-10-17T02:04:28;0.20;;;0.20;;
28960;SDS011;16068;42.896;20.868;2022-10-17T02:07:14;0.10;;;0.10;;
28960;SDS011;16068;42.896;20.868;2022-10-17T02:10:01;0.20;;;0.20;;
28960;SDS011;16068;42.896;20.868;2022-10-17T02:12:57;0.10;;;0.10;;
28960;SDS011;16068;42.896;20.868;2022-10-17T02:19:11;0.20;;;0.20;;
28960;SDS011;16068;42.896;20.868;2022-10-17T02:28:38;0.10;;;0.10;;
28960;SDS011;16068;42.896;20.868;2022-10-17T02:31:37;0.10;;;0.10;;
28960;SDS011;16068;42.896;20.868;2022-10-17T02:37:21;0.10;;;0.10;;
28960;SDS011;16068;42.896;20.868;2022-10-17T02:40:11;0.10;;;0.10;;
28960;SDS011;16068;42.896;20.868;2022-10-17T02:42:59;0.20;;;0.20;;
28960;SDS011;16068;42.896;20.868;2022-10-17T02:45:46;0.13;;;0.13;;
28960;SDS011;16068;42.896;20.868;2022-10-17T02:48:35;0.20;;;0.20;;
28960;SDS011;16068;42.896;20.868;2022-10-17T02:54:36;0.10;;;0.10;;
28960;SDS011;16068;42.896;20.868;2022-10-17T02:57:27;0.13;;;0.13;;
28960;SDS011;16068;42.896;20.868;2022-10-17T03:00:16;0.10;;;0.10;;
28960;SDS011;16068;42.896;20.868;2022-10-17T03:03:17;0.10;;;0.10;;
28960;SDS011;16068;42.896;20.868;2022-10-17T03:06:04;0.10;;;0.10;;
28960;SDS011;16068;42.896;20.868;2022-10-17T03:08:50;0.10;;;0.10;;
28960;SDS011;16068;42.896;20.868;2022-10-17T03:11:36;0.10;;;0.10;;
28960;SDS011;16068;42.896;20.868;2022-10-17T03:14:24;0.10;;;0.10;;
28960;SDS011;16068;42.896;20.868;2022-10-17T03:17:10;0.10;;;0.10;;
28960;SDS011;16068;42.896;20.868;2022-10-17T03:19:56;0.20;;;0.20;;
28960;SDS011;16068;42.896;20.868;2022-10-17T03:22:42;0.10;;;0.10;;
28960;SDS011;16068;42.896;20.868;2022-10-17T03:25:28;0.10;;;0.10;;
28960;SDS011;16068;42.896;20.868;2022-10-17T03:28:15;0.13;;;0.13;;
28960;SDS011;16068;42.896;20.868;2022-10-17T03:31:12;0.20;;;0.20;;
28960;SDS011;16068;42.896;20.868;2022-10-17T03:34:01;0.17;;;0.17;;
28960;SDS011;16068;42.896;20.868;2022-10-17T03:36:47;0.10;;;0.10;;
28960;SDS011;16068;42.896;20.868;2022-10-17T03:39:33;0.10;;;0.10;;
28960;SDS011;16068;42.896;20.868;2022-10-17T03:42:20;0.10;;;0.10;;
28960;SDS011;16068;42.896;20.868;2022-10-17T03:45:06;0.10;;;0.10;;
28960;SDS011;16068;42.896;20.868;2022-10-17T03:47:53;0.10;;;0.10;;
28960;SDS011;16068;42.896;20.868;2022-10-17T03:50:39;0.10;;;0.10;;
28960;SDS011;16068;42.896;20.868;2022-10-17T03:53:26;0.10;;;0.10;;
28960;SDS011;16068;42.896;20.868;2022-10-17T03:56:15;0.10;;;0.10;;
28960;SDS011;16068;42.896;20.868;2022-10-17T03:59:11;0.20;;;0.20;;
28960;SDS011;16068;42.896;20.868;2022-10-17T04:02:00;0.10;;;0.10;;
28960;SDS011;16068;42.896;20.868;2022-10-17T04:04:46;0.17;;;0.17;;
28960;SDS011;16068;42.896;20.868;2022-10-17T04:07:36;0.13;;;0.13;;
28960;SDS011;16068;42.896;20.868;2022-10-17T04:10:23;0.10;;;0.10;;
28960;SDS011;16068;42.896;20.868;2022-10-17T04:13:09;0.10;;;0.10;;
28960;SDS011;16068;42.896;20.868;2022-10-17T04:15:59;0.20;;;0.20;;
28960;SDS011;16068;42.896;20.868;2022-10-17T04:18:54;0.15;;;0.15;;
28960;SDS011;16068;42.896;20.868;2022-10-17T04:21:43;0.10;;;0.10;;
28960;SDS011;16068;42.896;20.868;2022-10-17T04:24:28;0.17;;;0.17;;
28960;SDS011;16068;42.896;20.868;2022-10-17T04:27:29;0.20;;;0.20;;
28960;SDS011;16068;42.896;20.868;2022-10-17T04:30:15;0.10;;;0.10;;
28960;SDS011;16068;42.896;20.868;2022-10-17T04:33:02;0.10;;;0.10;;
28960;SDS011;16068;42.896;20.868;2022-10-17T04:36:05;0.20;;;0.20;;
28960;SDS011;16068;42.896;20.868;2022-10-17T04:38:53;0.15;;;0.15;;
28960;SDS011;16068;42.896;20.868;2022-10-17T04:41:39;0.10;;;0.10;;
28960;SDS011;16068;42.896;20.868;2022-10-17T04:44:25;0.20;;;0.20;;
28960;SDS011;16068;42.896;20.868;2022-10-17T04:47:11;0.13;;;0.13;;
28960;SDS011;16068;42.896;20.868;2022-10-17T04:49:57;0.10;;;0.10;;
28960;SDS011;16068;42.896;20.868;2022-10-17T04:52:43;0.10;;;0.10;;
28960;SDS011;16068;42.896;20.868;2022-10-17T04:55:29;0.10;;;0.10;;
28960;SDS011;16068;42.896;20.868;2022-10-17T04:58:15;0.20;;;0.20;;
28960;SDS011;16068;42.896;20.868;2022-10-17T05:01:05;0.10;;;0.10;;
28960;SDS011;16068;42.896;20.868;2022-10-17T05:03:53;0.20;;;0.20;;
28960;SDS011;16068;42.896;20.868;2022-10-17T05:06:40;0.10;;;0.10;;
28960;SDS011;16068;42.896;20.868;2022-10-17T05:10:02;0.10;;;0.10;;
28960;SDS011;16068;42.896;20.868;2022-10-17T05:12:49;0.13;;;0.13;;
28960;SDS011;16068;42.896;20.868;2022-10-17T05:15:38;0.15;;;0.15;;
28960;SDS011;16068;42.896;20.868;2022-10-17T05:18:24;0.20;;;0.20;;
28960;SDS011;16068;42.896;20.868;2022-10-17T05:21:10;0.10;;;0.10;;
28960;SDS011;16068;42.896;20.868;2022-10-17T05:23:56;0.10;;;0.10;;
28960;SDS011;16068;42.896;20.868;2022-10-17T05:26:42;0.10;;;0.10;;
28960;SDS011;16068;42.896;20.868;2022-10-17T05:29:29;0.20;;;0.20;;
28960;SDS011;16068;42.896;20.868;2022-10-17T05:32:23;0.10;;;0.10;;
28960;SDS011;16068;42.896;20.868;2022-10-17T05:35:09;0.10;;;0.10;;
28960;SDS011;16068;42.896;20.868;2022-10-17T05:37:56;0.20;;;0.20;;
28960;SDS011;16068;42.896;20.868;2022-10-17T05:40:43;0.10;;;0.10;;
28960;SDS011;16068;42.896;20.868;2022-10-17T05:43:29;0.10;;;0.10;;
28960;SDS011;16068;42.896;20.868;2022-10-17T05:46:16;0.20;;;0.20;;
28960;SDS011;16068;42.896;20.868;2022-10-17T05:49:02;0.10;;;0.10;;
28960;SDS011;16068;42.896;20.868;2022-10-17T05:52:08;0.20;;;0.20;;
28960;SDS011;16068;42.896;20.868;2022-10-17T05:55:08;0.10;;;0.10;;
28960;SDS011;16068;42.896;20.868;2022-10-17T05:57:54;0.20;;;0.20;;
28960;SDS011;16068;42.896;20.868;2022-10-17T06:00:42;0.10;;;0.10;;
28960;SDS011;16068;42.896;20.868;2022-10-17T06:03:28;0.20;;;0.20;;
28960;SDS011;16068;42.896;20.868;2022-10-17T06:06:16;0.17;;;0.15;;
28960;SDS011;16068;42.896;20.868;2022-10-17T06:09:04;0.20;;;0.20;;
28960;SDS011;16068;42.896;20.868;2022-10-17T06:11:54;0.13;;;0.13;;
28960;SDS011;16068;42.896;20.868;2022-10-17T06:14:39;0.10;;;0.10;;
28960;SDS011;16068;42.896;20.868;2022-10-17T06:17:25;0.15;;;0.15;;
28960;SDS011;16068;42.896;20.868;2022-10-17T06:20:12;0.20;;;0.20;;
28960;SDS011;16068;42.896;20.868;2022-10-17T06:22:58;0.10;;;0.10;;
28960;SDS011;16068;42.896;20.868;2022-10-17T06:26:00;0.20;;;0.20;;
28960;SDS011;16068;42.896;20.868;2022-10-17T06:28:47;0.15;;;0.15;;
28960;SDS011;16068;42.896;20.868;2022-10-17T06:31:33;0.20;;;0.20;;
28960;SDS011;16068;42.896;20.868;2022-10-17T06:34:20;0.10;;;0.10;;
28960;SDS011;16068;42.896;20.868;2022-10-17T06:37:06;0.17;;;0.17;;
28960;SDS011;16068;42.896;20.868;2022-10-17T06:39:54;0.20;;;0.20;;
28960;SDS011;16068;42.896;20.868;2022-10-17T06:42:41;0.20;;;0.20;;
28960;SDS011;16068;42.896;20.868;2022-10-17T06:46:03;0.10;;;0.10;;
28960;SDS011;16068;42.896;20.868;2022-10-17T06:48:54;0.13;;;0.13;;
28960;SDS011;16068;42.896;20.868;2022-10-17T06:51:59;0.30;;;0.30;;
28960;SDS011;16068;42.896;20.868;2022-10-17T06:55:00;0.20;;;0.20;;
28960;SDS011;16068;42.896;20.868;2022-10-17T06:58:11;0.30;;;0.30;;
28960;SDS011;16068;42.896;20.868;2022-10-17T07:01:13;2.25;;;0.30;;
28960;SDS011;16068;42.896;20.868;2022-10-17T07:04:01;0.20;;;0.20;;
28960;SDS011;16068;42.896;20.868;2022-10-17T07:06:48;0.20;;;0.20;;
28960;SDS011;16068;42.896;20.868;2022-10-17T07:09:38;0.20;;;0.20;;
28960;SDS011;16068;42.896;20.868;2022-10-17T07:12:25;0.20;;;0.20;;
28960;SDS011;16068;42.896;20.868;2022-10-17T07:15:11;0.20;;;0.20;;
28960;SDS011;16068;42.896;20.868;2022-10-17T07:17:57;0.20;;;0.20;;
28960;SDS011;16068;42.896;20.868;2022-10-17T07:20:51;0.60;;;0.50;;
28960;SDS011;16068;42.896;20.868;2022-10-17T07:23:37;0.50;;;0.50;;
28960;SDS011;16068;42.896;20.868;2022-10-17T07:26:24;0.40;;;0.40;;
28960;SDS011;16068;42.896;20.868;2022-10-17T07:29:10;0.47;;;0.38;;
28960;SDS011;16068;42.896;20.868;2022-10-17T07:32:05;0.40;;;0.40;;
28960;SDS011;16068;42.896;20.868;2022-10-17T07:34:53;0.30;;;0.30;;
28960;SDS011;16068;42.896;20.868;2022-10-17T07:37:38;0.50;;;0.47;;
28960;SDS011;16068;42.896;20.868;2022-10-17T07:40:25;0.30;;;0.30;;
28960;SDS011;16068;42.896;20.868;2022-10-17T07:43:10;0.30;;;0.30;;
28960;SDS011;16068;42.896;20.868;2022-10-17T07:45:56;0.28;;;0.28;;
28960;SDS011;16068;42.896;20.868;2022-10-17T07:48:42;0.28;;;0.28;;
28960;SDS011;16068;42.896;20.868;2022-10-17T07:51:28;0.30;;;0.30;;
28960;SDS011;16068;42.896;20.868;2022-10-17T07:54:14;0.20;;;0.20;;
28960;SDS011;16068;42.896;20.868;2022-10-17T07:57:00;0.20;;;0.20;;
28960;SDS011;16068;42.896;20.868;2022-10-17T07:59:46;0.28;;;0.28;;
28960;SDS011;16068;42.896;20.868;2022-10-17T08:02:32;0.20;;;0.20;;
28960;SDS011;16068;42.896;20.868;2022-10-17T08:05:18;0.10;;;0.10;;
28960;SDS011;16068;42.896;20.868;2022-10-17T08:08:04;0.43;;;0.30;;
28960;SDS011;16068;42.896;20.868;2022-10-17T08:10:50;0.20;;;0.20;;
28960;SDS011;16068;42.896;20.868;2022-10-17T08:13:36;0.20;;;0.20;;
28960;SDS011;16068;42.896;20.868;2022-10-17T08:16:21;0.10;;;0.10;;
28960;SDS011;16068;42.896;20.868;2022-10-17T08:19:07;0.17;;;0.13;;
28960;SDS011;16068;42.896;20.868;2022-10-17T08:21:55;0.25;;;0.20;;
28960;SDS011;16068;42.896;20.868;2022-10-17T08:24:42;0.20;;;0.20;;
28960;SDS011;16068;42.896;20.868;2022-10-17T08:27:31;0.20;;;0.20;;
28960;SDS011;16068;42.896;20.868;2022-10-17T08:30:17;0.30;;;0.20;;
28960;SDS011;16068;42.896;20.868;2022-10-17T08:33:03;0.20;;;0.20;;
28960;SDS011;16068;42.896;20.868;2022-10-17T08:35:49;0.30;;;0.30;;
28960;SDS011;16068;42.896;20.868;2022-10-17T08:38:35;0.40;;;0.40;;
28960;SDS011;16068;42.896;20.868;2022-10-17T08:47:37;0.30;;;0.30;;
28960;SDS011;16068;42.896;20.868;2022-10-17T08:50:39;0.47;;;0.45;;
28960;SDS011;16068;42.896;20.868;2022-10-17T08:56:36;3.50;;;0.30;;
28960;SDS011;16068;42.896;20.868;2022-10-17T08:59:33;0.20;;;0.20;;
28960;SDS011;16068;42.896;20.868;2022-10-17T09:20:39;0.40;;;0.40;;
28960;SDS011;16068;42.896;20.868;2022-10-17T09:23:42;0.50;;;0.32;;
28960;SDS011;16068;42.896;20.868;2022-10-17T09:26:31;1.13;;;0.40;;
28960;SDS011;16068;42.896;20.868;2022-10-17T09:29:21;0.50;;;0.40;;
28960;SDS011;16068;42.896;20.868;2022-10-17T09:32:18;0.60;;;0.47;;
28960;SDS011;16068;42.896;20.868;2022-10-17T09:35:13;0.50;;;0.50;;
28960;SDS011;16068;42.896;20.868;2022-10-17T09:37:59;1.08;;;0.50;;
28960;SDS011;16068;42.896;20.868;2022-10-17T10:37:20;1.73;;;0.77;;
28960;SDS011;16068;42.896;20.868;2022-10-17T10:40:15;0.55;;;0.50;;
28960;SDS011;16068;42.896;20.868;2022-10-17T10:43:03;0.55;;;0.50;;
28960;SDS011;16068;42.896;20.868;2022-10-17T10:45:50;0.57;;;0.50;;
28960;SDS011;16068;42.896;20.868;2022-10-17T10:48:36;0.50;;;0.50;;
28960;SDS011;16068;42.896;20.868;2022-10-17T10:51:39;0.50;;;0.45;;
28960;SDS011;16068;42.896;20.868;2022-10-17T10:54:29;1.65;;;0.50;;
28960;SDS011;16068;42.896;20.868;2022-10-17T10:57:19;0.68;;;0.50;;
28960;SDS011;16068;42.896;20.868;2022-10-17T11:00:14;0.68;;;0.60;;
28960;SDS011;16068;42.896;20.868;2022-10-17T11:06:05;0.60;;;0.60;;
28960;SDS011;16068;42.896;20.868;2022-10-17T11:24:14;1.23;;;0.98;;
28960;SDS011;16068;42.896;20.868;2022-10-17T11:27:14;1.05;;;0.90;;
28960;SDS011;16068;42.896;20.868;2022-10-17T11:30:05;0.80;;;0.80;;
28960;SDS011;16068;42.896;20.868;2022-10-17T11:32:52;1.83;;;1.10;;
28960;SDS011;16068;42.896;20.868;2022-10-17T11:35:43;1.00;;;0.90;;
28960;SDS011;16068;42.896;20.868;2022-10-17T11:41:42;1.08;;;0.70;;
28960;SDS011;16068;42.896;20.868;2022-10-17T11:50:42;0.70;;;0.60;;
28960;SDS011;16068;42.896;20.868;2022-10-17T11:57:45;0.95;;;0.60;;
28960;SDS011;16068;42.896;20.868;2022-10-17T12:00:21;0.85;;;0.60;;
28960;SDS011;16068;42.896;20.868;2022-10-17T12:03:39;0.70;;;0.57;;
28960;SDS011;16068;42.896;20.868;2022-10-17T12:12:10;0.73;;;0.55;;
28960;SDS011;16068;42.896;20.868;2022-10-17T12:18:02;1.02;;;0.93;;
28960;SDS011;16068;42.896;20.868;2022-10-17T12:20:57;0.75;;;0.63;;
28960;SDS011;16068;42.896;20.868;2022-10-17T12:23:51;0.50;;;0.50;;
28960;SDS011;16068;42.896;20.868;2022-10-17T12:26:39;0.63;;;0.55;;
28960;SDS011;16068;42.896;20.868;2022-10-17T12:29:27;0.85;;;0.70;;
28960;SDS011;16068;42.896;20.868;2022-10-17T12:32:14;0.80;;;0.70;;
28960;SDS011;16068;42.896;20.868;2022-10-17T12:35:00;1.05;;;0.60;;
28960;SDS011;16068;42.896;20.868;2022-10-17T12:46:40;1.42;;;1.00;;
28960;SDS011;16068;42.896;20.868;2022-10-17T12:55:24;0.80;;;0.60;;
28960;SDS011;16068;42.896;20.868;2022-10-17T12:58:11;1.13;;;0.90;;
28960;SDS011;16068;42.896;20.868;2022-10-17T13:00:59;0.82;;;0.70;;
28960;SDS011;16068;42.896;20.868;2022-10-17T13:04:07;0.90;;;0.60;;
28960;SDS011;16068;42.896;20.868;2022-10-17T13:06:55;0.60;;;0.60;;
28960;SDS011;16068;42.896;20.868;2022-10-17T13:09:43;1.02;;;0.70;;
28960;SDS011;16068;42.896;20.868;2022-10-17T13:12:29;1.05;;;0.70;;
28960;SDS011;16068;42.896;20.868;2022-10-17T13:15:21;1.30;;;0.80;;
28960;SDS011;16068;42.896;20.868;2022-10-17T13:18:12;1.15;;;0.82;;
28960;SDS011;16068;42.896;20.868;2022-10-17T13:21:05;0.70;;;0.70;;
28960;SDS011;16068;42.896;20.868;2022-10-17T13:23:58;1.33;;;0.68;;
28960;SDS011;16068;42.896;20.868;2022-10-17T13:26:45;0.90;;;0.80;;
28960;SDS011;16068;42.896;20.868;2022-10-17T13:29:31;1.08;;;0.98;;
28960;SDS011;16068;42.896;20.868;2022-10-17T13:32:17;1.30;;;0.90;;
28960;SDS011;16068;42.896;20.868;2022-10-17T13:35:06;0.82;;;0.80;;
28960;SDS011;16068;42.896;20.868;2022-10-17T13:37:54;0.98;;;0.90;;
28960;SDS011;16068;42.896;20.868;2022-10-17T13:40:41;1.08;;;0.90;;
28960;SDS011;16068;42.896;20.868;2022-10-17T13:43:34;0.88;;;0.70;;
28960;SDS011;16068;42.896;20.868;2022-10-17T13:46:30;0.88;;;0.73;;
28960;SDS011;16068;42.896;20.868;2022-10-17T13:52:20;1.20;;;1.10;;
28960;SDS011;16068;42.896;20.868;2022-10-17T13:55:11;1.05;;;0.90;;
28960;SDS011;16068;42.896;20.868;2022-10-17T13:58:08;1.83;;;0.80;;
28960;SDS011;16068;42.896;20.868;2022-10-17T14:00:59;2.08;;;0.93;;
28960;SDS011;16068;42.896;20.868;2022-10-17T14:03:46;1.00;;;0.88;;
28960;SDS011;16068;42.896;20.868;2022-10-17T14:06:42;1.10;;;0.80;;
28960;SDS011;16068;42.896;20.868;2022-10-17T14:09:35;0.95;;;0.60;;
28960;SDS011;16068;42.896;20.868;2022-10-17T14:12:21;0.57;;;0.50;;
28960;SDS011;16068;42.896;20.868;2022-10-17T14:15:08;1.13;;;0.88;;
28960;SDS011;16068;42.896;20.868;2022-10-17T14:18:00;0.90;;;0.75;;
28960;SDS011;16068;42.896;20.868;2022-10-17T14:20:52;0.90;;;0.70;;
28960;SDS011;16068;42.896;20.868;2022-10-17T14:33:41;0.75;;;0.70;;
28960;SDS011;16068;42.896;20.868;2022-10-17T14:36:36;1.00;;;0.80;;
28960;SDS011;16068;42.896;20.868;2022-10-17T14:39:23;1.13;;;0.60;;
28960;SDS011;16068;42.896;20.868;2022-10-17T14:42:17;1.42;;;0.82;;
28960;SDS011;16068;42.896;20.868;2022-10-17T14:45:05;0.70;;;0.70;;
28960;SDS011;16068;42.896;20.868;2022-10-17T14:47:58;0.80;;;0.80;;
28960;SDS011;16068;42.896;20.868;2022-10-17T14:51:14;0.63;;;0.63;;
28960;SDS011;16068;42.896;20.868;2022-10-17T14:54:16;0.70;;;0.55;;
28960;SDS011;16068;42.896;20.868;2022-10-17T14:57:21;1.63;;;0.60;;
28960;SDS011;16068;42.896;20.868;2022-10-17T15:00:13;0.75;;;0.70;;
28960;SDS011;16068;42.896;20.868;2022-10-17T15:03:03;1.00;;;0.70;;
28960;SDS011;16068;42.896;20.868;2022-10-17T15:05:49;0.88;;;0.75;;
28960;SDS011;16068;42.896;20.868;2022-10-17T15:08:36;1.10;;;0.95;;
28960;SDS011;16068;42.896;20.868;2022-10-17T15:11:21;0.98;;;0.70;;
28960;SDS011;16068;42.896;20.868;2022-10-17T15:14:08;0.77;;;0.70;;
28960;SDS011;16068;42.896;20.868;2022-10-17T15:16:53;0.93;;;0.80;;
28960;SDS011;16068;42.896;20.868;2022-10-17T15:19:39;0.73;;;0.60;;
28960;SDS011;16068;42.896;20.868;2022-10-17T15:22:25;1.02;;;0.75;;
28960;SDS011;16068;42.896;20.868;2022-10-17T15:25:12;0.70;;;0.70;;
28960;SDS011;16068;42.896;20.868;2022-10-17T15:27:58;1.08;;;0.82;;
28960;SDS011;16068;42.896;20.868;2022-10-17T15:30:44;0.43;;;0.43;;
28960;SDS011;16068;42.896;20.868;2022-10-17T15:33:30;0.77;;;0.70;;
28960;SDS011;16068;42.896;20.868;2022-10-17T15:36:17;0.50;;;0.50;;
28960;SDS011;16068;42.896;20.868;2022-10-17T15:39:10;0.50;;;0.40;;
28960;SDS011;16068;42.896;20.868;2022-10-17T15:41:56;0.68;;;0.50;;
28960;SDS011;16068;42.896;20.868;2022-10-17T15:44:43;0.70;;;0.40;;
28960;SDS011;16068;42.896;20.868;2022-10-17T15:47:34;0.75;;;0.40;;
28960;SDS011;16068;42.896;20.868;2022-10-17T15:50:20;0.45;;;0.40;;
28960;SDS011;16068;42.896;20.868;2022-10-17T15:53:10;0.57;;;0.52;;
28960;SDS011;16068;42.896;20.868;2022-10-17T15:55:57;0.30;;;0.30;;
28960;SDS011;16068;42.896;20.868;2022-10-17T15:58:43;0.40;;;0.40;;
28960;SDS011;16068;42.896;20.868;2022-10-17T16:01:29;0.30;;;0.30;;
28960;SDS011;16068;42.896;20.868;2022-10-17T16:04:15;0.30;;;0.30;;
28960;SDS011;16068;42.896;20.868;2022-10-17T16:07:03;0.30;;;0.30;;
28960;SDS011;16068;42.896;20.868;2022-10-17T16:09:49;0.30;;;0.30;;
28960;SDS011;16068;42.896;20.868;2022-10-17T16:12:34;0.40;;;0.40;;
28960;SDS011;16068;42.896;20.868;2022-10-17T16:15:26;0.20;;;0.20;;
28960;SDS011;16068;42.896;20.868;2022-10-17T16:18:12;0.20;;;0.20;;
28960;SDS011;16068;42.896;20.868;2022-10-17T16:20:58;0.28;;;0.25;;
28960;SDS011;16068;42.896;20.868;2022-10-17T16:23:44;0.20;;;0.20;;
28960;SDS011;16068;42.896;20.868;2022-10-17T16:26:30;0.30;;;0.30;;
28960;SDS011;16068;42.896;20.868;2022-10-17T16:29:16;0.30;;;0.30;;
28960;SDS011;16068;42.896;20.868;2022-10-17T16:32:05;0.30;;;0.30;;
28960;SDS011;16068;42.896;20.868;2022-10-17T16:34:51;0.20;;;0.20;;
28960;SDS011;16068;42.896;20.868;2022-10-17T16:37:37;0.25;;;0.20;;
28960;SDS011;16068;42.896;20.868;2022-10-17T16:40:22;0.20;;;0.20;;
28960;SDS011;16068;42.896;20.868;2022-10-17T16:43:09;0.30;;;0.30;;
28960;SDS011;16068;42.896;20.868;2022-10-17T16:45:57;1.33;;;0.30;;
28960;SDS011;16068;42.896;20.868;2022-10-17T16:48:43;0.30;;;0.30;;
28960;SDS011;16068;42.896;20.868;2022-10-17T16:51:29;0.25;;;0.25;;
28960;SDS011;16068;42.896;20.868;2022-10-17T16:54:18;0.20;;;0.20;;
28960;SDS011;16068;42.896;20.868;2022-10-17T16:57:04;0.30;;;0.30;;
28960;SDS011;16068;42.896;20.868;2022-10-17T16:59:50;0.30;;;0.30;;
28960;SDS011;16068;42.896;20.868;2022-10-17T17:02:37;0.32;;;0.32;;
28960;SDS011;16068;42.896;20.868;2022-10-17T17:05:23;0.30;;;0.30;;
28960;SDS011;16068;42.896;20.868;2022-10-17T17:08:09;0.40;;;0.40;;
28960;SDS011;16068;42.896;20.868;2022-10-17T17:10:57;0.30;;;0.30;;
28960;SDS011;16068;42.896;20.868;2022-10-17T17:13:43;0.30;;;0.30;;
28960;SDS011;16068;42.896;20.868;2022-10-17T17:16:30;0.30;;;0.30;;
28960;SDS011;16068;42.896;20.868;2022-10-17T17:19:17;0.38;;;0.38;;
28960;SDS011;16068;42.896;20.868;2022-10-17T17:22:06;0.43;;;0.30;;
28960;SDS011;16068;42.896;20.868;2022-10-17T17:24:52;0.28;;;0.28;;
28960;SDS011;16068;42.896;20.868;2022-10-17T17:27:38;0.20;;;0.20;;
28960;SDS011;16068;42.896;20.868;2022-10-17T17:30:24;0.30;;;0.30;;
28960;SDS011;16068;42.896;20.868;2022-10-17T17:33:10;0.30;;;0.30;;
28960;SDS011;16068;42.896;20.868;2022-10-17T17:35:58;0.25;;;0.25;;
28960;SDS011;16068;42.896;20.868;2022-10-17T17:38:48;0.57;;;0.50;;
28960;SDS011;16068;42.896;20.868;2022-10-17T17:41:34;0.77;;;0.40;;
28960;SDS011;16068;42.896;20.868;2022-10-17T17:44:21;0.40;;;0.40;;
28960;SDS011;16068;42.896;20.868;2022-10-17T17:47:06;0.40;;;0.30;;
28960;SDS011;16068;42.896;20.868;2022-10-17T17:49:52;0.43;;;0.40;;
28960;SDS011;16068;42.896;20.868;2022-10-17T17:52:38;0.30;;;0.30;;
28960;SDS011;16068;42.896;20.868;2022-10-17T17:55:26;0.47;;;0.40;;
28960;SDS011;16068;42.896;20.868;2022-10-17T17:58:20;0.52;;;0.32;;
28960;SDS011;16068;42.896;20.868;2022-10-17T18:01:09;0.32;;;0.32;;
28960;SDS011;16068;42.896;20.868;2022-10-17T18:03:59;0.50;;;0.50;;
28960;SDS011;16068;42.896;20.868;2022-10-17T18:06:45;0.50;;;0.50;;
28960;SDS011;16068;42.896;20.868;2022-10-17T18:09:31;0.50;;;0.40;;
28960;SDS011;16068;42.896;20.868;2022-10-17T18:12:16;0.55;;;0.52;;
28960;SDS011;16068;42.896;20.868;2022-10-17T18:15:03;1.63;;;0.55;;
28960;SDS011;16068;42.896;20.868;2022-10-17T18:17:49;0.70;;;0.52;;
28960;SDS011;16068;42.896;20.868;2022-10-17T18:20:38;0.85;;;0.55;;
28960;SDS011;16068;42.896;20.868;2022-10-17T18:23:27;0.65;;;0.60;;
28960;SDS011;16068;42.896;20.868;2022-10-17T18:26:14;0.63;;;0.52;;
28960;SDS011;16068;42.896;20.868;2022-10-17T18:29:00;0.60;;;0.55;;
28960;SDS011;16068;42.896;20.868;2022-10-17T18:31:46;0.50;;;0.40;;
28960;SDS011;16068;42.896;20.868;2022-10-17T18:34:32;1.15;;;0.60;;
28960;SDS011;16068;42.896;20.868;2022-10-17T18:37:18;0.98;;;0.52;;
28960;SDS011;16068;42.896;20.868;2022-10-17T18:40:04;0.57;;;0.50;;
28960;SDS011;16068;42.896;20.868;2022-10-17T18:42:51;0.95;;;0.70;;
28960;SDS011;16068;42.896;20.868;2022-10-17T18:45:37;1.58;;;0.80;;
28960;SDS011;16068;42.896;20.868;2022-10-17T18:48:23;0.50;;;0.50;;
28960;SDS011;16068;42.896;20.868;2022-10-17T18:51:09;0.95;;;0.57;;
28960;SDS011;16068;42.896;20.868;2022-10-17T18:53:55;0.60;;;0.40;;
28960;SDS011;16068;42.896;20.868;2022-10-17T18:56:43;0.35;;;0.35;;
28960;SDS011;16068;42.896;20.868;2022-10-17T18:59:29;0.45;;;0.40;;
28960;SDS011;16068;42.896;20.868;2022-10-17T19:02:15;0.50;;;0.45;;
28960;SDS011;16068;42.896;20.868;2022-10-17T19:05:01;0.70;;;0.60;;
28960;SDS011;16068;42.896;20.868;2022-10-17T19:07:47;0.50;;;0.50;;
28960;SDS011;16068;42.896;20.868;2022-10-17T19:10:34;0.80;;;0.60;;
28960;SDS011;16068;42.896;20.868;2022-10-17T19:13:22;0.50;;;0.40;;
28960;SDS011;16068;42.896;20.868;2022-10-17T19:16:13;0.40;;;0.40;;
28960;SDS011;16068;42.896;20.868;2022-10-17T19:19:20;0.50;;;0.50;;
28960;SDS011;16068;42.896;20.868;2022-10-17T19:22:08;1.60;;;0.77;;
28960;SDS011;16068;42.896;20.868;2022-10-17T19:24:54;0.50;;;0.50;;
28960;SDS011;16068;42.896;20.868;2022-10-17T19:27:40;1.10;;;0.82;;
28960;SDS011;16068;42.896;20.868;2022-10-17T19:30:26;0.90;;;0.60;;
28960;SDS011;16068;42.896;20.868;2022-10-17T19:33:12;0.77;;;0.60;;
28960;SDS011;16068;42.896;20.868;2022-10-17T19:36:00;0.88;;;0.50;;
28960;SDS011;16068;42.896;20.868;2022-10-17T19:38:47;0.50;;;0.50;;
28960;SDS011;16068;42.896;20.868;2022-10-17T19:41:33;0.45;;;0.45;;
28960;SDS011;16068;42.896;20.868;2022-10-17T19:44:20;0.85;;;0.50;;
28960;SDS011;16068;42.896;20.868;2022-10-17T19:47:07;0.50;;;0.50;;
28960;SDS011;16068;42.896;20.868;2022-10-17T19:49:53;0.47;;;0.40;;